Time;durP1;ratioP1;P1;durP2;ratioP2;P2;SDS_P1;SDS_P2;PMS_P1;PMS_P2;Temp;Humidity;BMP_temperature;BMP_pressure;BME280_temperature;BME280_humidity;BME280_pressure;Samples;Min_cycle;Max_cycle;Signal;HPM_P1;HPM_P2
2023/03/04 00:01:50;;;;;;;4.80;4.50;;;;;;;;;;5035287;28;20057;-87
2023/03/04 00:04:16;;;;;;;9.00;6.32;;;;;;;;;;5033484;28;20056;-86
2023/03/04 00:06:43;;;;;;;6.40;5.88;;;;;;;;;;5033374;28;20099;-86
2023/03/04 00:09:09;;;;;;;5.32;4.97;;;;;;;;;;5033221;28;20045;-86
2023/03/04 00:11:37;;;;;;;5.20;4.80;;;;;;;;;;5033507;28;20053;-87
2023/03/04 00:14:03;;;;;;;5.85;5.30;;;;;;;;;;5033508;28;20100;-87
2023/03/04 00:16:30;;;;;;;4.50;3.95;;;;;;;;;;5033111;28;20103;-87
2023/03/04 00:18:57;;;;;;;2.75;2.65;;;;;;;;;;5038569;28;20099;-86
2023/03/04 00:21:24;;;;;;;5.45;5.05;;;;;;;;;;5052880;28;20103;-86
2023/03/04 00:23:50;;;;;;;2.75;2.55;;;;;;;;;;5045458;28;20054;-86
2023/03/04 00:26:17;;;;;;;4.63;4.32;;;;;;;;;;5032903;28;20103;-87
2023/03/04 00:28:45;;;;;;;3.80;3.60;;;;;;;;;;5033019;28;20423;-87
2023/03/04 00:31:11;;;;;;;5.00;4.45;;;;;;;;;;5032692;28;20053;-87
2023/03/04 00:33:39;;;;;;;4.45;4.05;;;;;;;;;;5037939;28;20098;-87
2023/03/04 00:36:06;;;;;;;5.85;5.43;;;;;;;;;;5049925;28;20106;-87
2023/03/04 00:38:32;;;;;;;3.40;3.20;;;;;;;;;;5032995;28;20483;-86
2023/03/04 00:40:59;;;;;;;5.78;5.32;;;;;;;;;;5032919;28;20092;-87
2023/03/04 00:43:25;;;;;;;4.63;4.22;;;;;;;;;;5032609;28;20053;-87
2023/03/04 00:45:53;;;;;;;7.53;6.93;;;;;;;;;;5032494;28;20451;-87
2023/03/04 00:48:19;;;;;;;6.28;5.88;;;;;;;;;;5032241;28;20656;-87
2023/03/04 00:50:46;;;;;;;6.43;5.95;;;;;;;;;;5032727;28;20053;-87
2023/03/04 00:53:12;;;;;;;5.75;5.22;;;;;;;;;;5035505;28;20045;-86
2023/03/04 00:55:39;;;;;;;8.30;7.20;;;;;;;;;;5032263;28;20099;-86
2023/03/04 00:58:05;;;;;;;9.52;6.35;;;;;;;;;;5032640;28;20500;-86
2023/03/04 01:00:32;;;;;;;8.13;6.38;;;;;;;;;;5033363;28;20054;-86
2023/03/04 01:03:00;;;;;;;7.35;6.75;;;;;;;;;;5032343;28;20108;-87
2023/03/04 01:05:26;;;;;;;6.50;6.07;;;;;;;;;;5032523;28;20053;-86
2023/03/04 01:07:53;;;;;;;6.78;5.72;;;;;;;;;;5032326;28;20057;-87
2023/03/04 01:10:19;;;;;;;7.28;4.68;;;;;;;;;;5032008;28;20046;-87
2023/03/04 01:12:46;;;;;;;6.10;5.30;;;;;;;;;;5032389;28;20458;-85
2023/03/04 01:15:13;;;;;;;3.47;3.25;;;;;;;;;;5032095;28;20045;-84
2023/03/04 01:17:40;;;;;;;6.65;6.13;;;;;;;;;;5033766;28;20053;-85
2023/03/04 01:20:09;;;;;;;4.68;4.28;;;;;;;;;;5032279;28;20053;-85
2023/03/04 01:22:36;;;;;;;4.90;4.47;;;;;;;;;;5032387;28;20049;-85
2023/03/04 01:25:02;;;;;;;6.25;5.78;;;;;;;;;;5046016;28;20048;-85
2023/03/04 01:27:29;;;;;;;6.03;5.47;;;;;;;;;;5051951;28;20104;-85
2023/03/04 01:29:55;;;;;;;4.47;4.18;;;;;;;;;;5051554;28;20064;-85
2023/03/04 01:32:22;;;;;;;6.68;6.13;;;;;;;;;;5051362;28;20052;-85
2023/03/04 01:34:48;;;;;;;4.38;4.10;;;;;;;;;;5034736;28;20107;-85
2023/03/04 01:37:16;;;;;;;6.60;6.15;;;;;;;;;;5031955;28;20045;-86
2023/03/04 01:39:42;;;;;;;5.30;4.90;;;;;;;;;;5031856;28;20046;-86
2023/03/04 01:42:13;;;;;;;4.80;4.53;;;;;;;;;;5032080;28;20049;-86
2023/03/04 01:44:40;;;;;;;7.63;6.25;;;;;;;;;;5031738;28;20049;-86
2023/03/04 01:47:06;;;;;;;7.97;7.40;;;;;;;;;;5031724;28;20111;-85
2023/03/04 01:49:33;;;;;;;4.85;4.47;;;;;;;;;;5034075;28;20056;-85
2023/03/04 01:52:00;;;;;;;4.60;4.30;;;;;;;;;;5031838;28;20553;-85
2023/03/04 01:54:27;;;;;;;6.32;5.95;;;;;;;;;;5032057;28;20045;-86
2023/03/04 01:56:55;;;;;;;8.10;7.50;;;;;;;;;;5031691;28;20111;-85
2023/03/04 01:59:22;;;;;;;6.65;6.18;;;;;;;;;;5031455;28;20730;-86
2023/03/04 02:01:49;;;;;;;6.93;6.43;;;;;;;;;;5031563;28;20046;-88
2023/03/04 02:04:17;;;;;;;4.43;4.10;;;;;;;;;;5037126;28;20494;-85
2023/03/04 02:06:44;;;;;;;4.88;4.53;;;;;;;;;;5047221;28;20052;-85
2023/03/04 02:09:11;;;;;;;4.75;4.45;;;;;;;;;;5046791;28;20049;-87
2023/03/04 02:11:39;;;;;;;4.13;3.83;;;;;;;;;;5031502;28;20412;-85
2023/03/04 02:14:06;;;;;;;5.07;4.60;;;;;;;;;;5034440;28;20045;-85
2023/03/04 02:16:33;;;;;;;5.40;4.95;;;;;;;;;;5035656;28;20057;-85
2023/03/04 02:18:59;;;;;;;5.35;4.88;;;;;;;;;;5035764;28;20053;-86
2023/03/04 02:21:27;;;;;;;6.38;5.97;;;;;;;;;;5035257;28;20050;-86
2023/03/04 02:23:57;;;;;;;5.75;5.35;;;;;;;;;;5036739;28;20139;-86
2023/03/04 02:26:26;;;;;;;5.32;4.93;;;;;;;;;;5038932;28;20111;-85
2023/03/04 02:28:53;;;;;;;5.30;5.00;;;;;;;;;;5035591;28;20046;-85
2023/03/04 02:31:25;;;;;;;5.13;4.82;;;;;;;;;;5035135;28;20058;-85
2023/03/04 02:33:53;;;;;;;5.13;4.78;;;;;;;;;;5035133;28;20053;-85
2023/03/04 02:36:19;;;;;;;8.60;6.07;;;;;;;;;;5035154;28;20049;-85
2023/03/04 02:38:46;;;;;;;3.20;2.85;;;;;;;;;;5035113;28;20411;-86
2023/03/04 02:41:13;;;;;;;3.75;3.55;;;;;;;;;;5035400;28;20057;-85
2023/03/04 02:43:41;;;;;;;5.18;4.75;;;;;;;;;;5036029;28;20121;-86
2023/03/04 02:46:09;;;;;;;5.05;4.70;;;;;;;;;;5034922;28;20458;-85
2023/03/04 02:48:36;;;;;;;6.47;5.18;;;;;;;;;;5035014;28;20053;-85
2023/03/04 02:51:02;;;;;;;6.72;6.18;;;;;;;;;;5034831;28;20104;-85
2023/03/04 02:53:29;;;;;;;4.82;4.43;;;;;;;;;;5034321;28;20053;-85
2023/03/04 02:55:55;;;;;;;4.35;4.05;;;;;;;;;;5034603;28;20461;-85
2023/03/04 02:58:22;;;;;;;6.20;5.70;;;;;;;;;;5037839;28;20111;-85
2023/03/04 03:00:49;;;;;;;5.82;5.43;;;;;;;;;;5034694;28;20099;-85
2023/03/04 03:03:16;;;;;;;12.60;6.03;;;;;;;;;;5034578;28;20103;-85
2023/03/04 03:05:42;;;;;;;6.95;3.80;;;;;;;;;;5034622;28;20465;-85
2023/03/04 03:08:09;;;;;;;4.30;3.25;;;;;;;;;;5034570;28;20053;-85
2023/03/04 03:10:36;;;;;;;3.78;3.58;;;;;;;;;;5034392;28;20541;-85
2023/03/04 03:13:02;;;;;;;4.38;4.07;;;;;;;;;;5034683;28;20045;-85
2023/03/04 03:15:28;;;;;;;6.68;6.15;;;;;;;;;;5035890;28;20095;-85
2023/03/04 03:17:56;;;;;;;6.30;5.90;;;;;;;;;;5034383;28;20495;-85
2023/03/04 03:20:23;;;;;;;5.43;5.10;;;;;;;;;;5034282;28;20053;-85
2023/03/04 03:22:49;;;;;;;4.30;3.97;;;;;;;;;;5034166;28;20046;-85
2023/03/04 03:25:16;;;;;;;5.40;5.03;;;;;;;;;;5033592;28;20054;-85
2023/03/04 03:27:43;;;;;;;7.40;5.65;;;;;;;;;;5034337;28;20041;-85
2023/03/04 03:30:10;;;;;;;3.88;3.60;;;;;;;;;;5033906;28;20065;-85
2023/03/04 03:32:37;;;;;;;4.55;4.13;;;;;;;;;;5047362;28;20415;-85
2023/03/04 03:35:05;;;;;;;5.47;4.97;;;;;;;;;;5053681;28;20053;-85
2023/03/04 03:37:32;;;;;;;6.07;5.22;;;;;;;;;;5053752;28;20048;-85
2023/03/04 03:39:58;;;;;;;6.50;5.93;;;;;;;;;;5053592;28;20050;-85
2023/03/04 03:42:24;;;;;;;4.18;3.97;;;;;;;;;;5053934;28;20110;-85
2023/03/04 03:44:51;;;;;;;5.25;4.75;;;;;;;;;;5048897;28;20096;-85
2023/03/04 03:47:17;;;;;;;6.25;5.47;;;;;;;;;;5033585;28;20100;-86
2023/03/04 03:49:44;;;;;;;6.15;4.40;;;;;;;;;;5036002;28;20049;-85
2023/03/04 03:52:12;;;;;;;4.00;3.67;;;;;;;;;;5033787;28;20053;-85
2023/03/04 03:54:38;;;;;;;3.58;3.28;;;;;;;;;;5033513;28;20553;-85
2023/03/04 03:57:05;;;;;;;3.58;3.28;;;;;;;;;;5033910;28;20046;-85
2023/03/04 03:59:31;;;;;;;2.40;2.20;;;;;;;;;;5033169;28;20103;-85
2023/03/04 04:01:58;;;;;;;4.47;3.65;;;;;;;;;;5033691;28;20053;-85
2023/03/04 04:04:24;;;;;;;3.70;3.42;;;;;;;;;;5034654;28;20099;-85
2023/03/04 04:06:51;;;;;;;5.10;4.68;;;;;;;;;;5033429;28;20045;-85
2023/03/04 04:09:19;;;;;;;4.70;4.28;;;;;;;;;;5033366;28;20045;-85
2023/03/04 04:11:45;;;;;;;5.25;4.82;;;;;;;;;;5052558;28;20044;-85
2023/03/04 04:14:11;;;;;;;2.85;2.72;;;;;;;;;;5053258;28;20049;-85
2023/03/04 04:16:38;;;;;;;3.80;3.50;;;;;;;;;;5052875;28;20044;-85
2023/03/04 04:19:05;;;;;;;4.63;4.20;;;;;;;;;;5053189;28;20490;-85
2023/03/04 04:21:31;;;;;;;4.13;2.28;;;;;;;;;;5045349;28;20045;-85
2023/03/04 04:23:58;;;;;;;6.38;5.97;;;;;;;;;;5033062;28;20049;-86
2023/03/04 04:26:25;;;;;;;3.50;3.22;;;;;;;;;;5033152;28;20438;-85
2023/03/04 04:28:52;;;;;;;5.07;4.45;;;;;;;;;;5033030;28;20054;-85
2023/03/04 04:31:18;;;;;;;4.60;4.32;;;;;;;;;;5047068;28;20057;-85
2023/03/04 04:33:45;;;;;;;6.93;3.72;;;;;;;;;;5052824;28;20106;-86
2023/03/04 04:36:13;;;;;;;5.13;4.72;;;;;;;;;;5051527;28;20045;-85
2023/03/04 04:38:39;;;;;;;6.40;4.03;;;;;;;;;;5045167;28;20103;-85
2023/03/04 04:41:06;;;;;;;9.93;5.07;;;;;;;;;;5033016;28;20049;-85
2023/03/04 04:43:34;;;;;;;9.00;5.00;;;;;;;;;;5032761;28;20108;-86
2023/03/04 04:46:00;;;;;;;4.22;4.00;;;;;;;;;;5043565;28;20068;-87
2023/03/04 04:48:27;;;;;;;4.00;3.72;;;;;;;;;;5053090;28;20398;-86
2023/03/04 04:50:54;;;;;;;6.97;6.05;;;;;;;;;;5052224;28;20057;-86
2023/03/04 04:53:20;;;;;;;5.60;5.13;;;;;;;;;;5052386;28;20075;-86
2023/03/04 04:55:47;;;;;;;3.33;3.13;;;;;;;;;;5037771;28;20495;-86
2023/03/04 04:58:13;;;;;;;3.33;3.10;;;;;;;;;;5032775;28;20061;-86
2023/03/04 05:00:41;;;;;;;6.35;6.03;;;;;;;;;;5040062;28;20098;-86
2023/03/04 05:03:08;;;;;;;6.13;4.32;;;;;;;;;;5052082;28;20110;-86
2023/03/04 05:05:34;;;;;;;3.42;2.90;;;;;;;;;;5050805;28;20122;-86
2023/03/04 05:08:00;;;;;;;5.60;5.20;;;;;;;;;;5052324;28;20052;-86
2023/03/04 05:10:27;;;;;;;5.15;4.85;;;;;;;;;;5049181;28;20053;-87
2023/03/04 05:12:53;;;;;;;4.18;3.90;;;;;;;;;;5050494;28;20107;-86
2023/03/04 05:15:20;;;;;;;5.57;4.78;;;;;;;;;;5051676;28;20098;-86
2023/03/04 05:17:48;;;;;;;6.45;5.93;;;;;;;;;;5052145;28;20053;-86
2023/03/04 05:20:14;;;;;;;4.82;4.53;;;;;;;;;;5051790;28;20739;-86
2023/03/04 05:22:41;;;;;;;5.00;4.70;;;;;;;;;;5052139;28;20126;-86
2023/03/04 05:25:07;;;;;;;5.47;4.97;;;;;;;;;;5050669;28;20106;-86
2023/03/04 05:27:34;;;;;;;3.88;3.67;;;;;;;;;;5033926;28;20065;-86
2023/03/04 05:30:00;;;;;;;3.55;3.33;;;;;;;;;;5031874;28;20099;-86
2023/03/04 05:32:27;;;;;;;5.38;4.97;;;;;;;;;;5032135;28;20053;-86
2023/03/04 05:34:55;;;;;;;4.10;3.90;;;;;;;;;;5031886;28;20457;-86
2023/03/04 05:37:21;;;;;;;5.47;5.10;;;;;;;;;;5051059;28;20052;-86
2023/03/04 05:39:48;;;;;;;4.50;4.07;;;;;;;;;;5051799;28;20494;-86
2023/03/04 05:42:14;;;;;;;4.15;3.88;;;;;;;;;;5051714;28;20056;-86
2023/03/04 05:44:40;;;;;;;4.53;4.13;;;;;;;;;;5051835;28;20053;-86
2023/03/04 05:47:07;;;;;;;4.35;3.63;;;;;;;;;;5033694;28;20053;-86
2023/03/04 05:49:33;;;;;;;5.47;5.05;;;;;;;;;;5031839;28;20062;-86
2023/03/04 05:52:01;;;;;;;5.25;4.93;;;;;;;;;;5031864;28;20049;-86
2023/03/04 05:54:28;;;;;;;4.10;3.75;;;;;;;;;;5032092;28;20103;-86
2023/03/04 05:56:54;;;;;;;5.50;5.03;;;;;;;;;;5031826;28;20057;-86
2023/03/04 05:59:22;;;;;;;4.43;4.05;;;;;;;;;;5031835;28;20132;-86
2023/03/04 06:01:48;;;;;;;6.47;4.25;;;;;;;;;;5031560;28;20546;-87
2023/03/04 06:04:15;;;;;;;3.30;3.10;;;;;;;;;;5033474;28;20071;-86
2023/03/04 06:06:41;;;;;;;5.57;4.18;;;;;;;;;;5031643;28;20581;-86
2023/03/04 06:09:09;;;;;;;6.10;5.43;;;;;;;;;;5031694;28;20049;-86
2023/03/04 06:11:36;;;;;;;10.38;6.85;;;;;;;;;;5031534;28;20054;-85
2023/03/04 06:14:02;;;;;;;5.00;4.50;;;;;;;;;;5031326;28;20438;-86
2023/03/04 06:16:29;;;;;;;4.20;3.90;;;;;;;;;;5041163;28;20045;-86
2023/03/04 06:18:55;;;;;;;5.90;5.47;;;;;;;;;;5051479;28;20049;-86
2023/03/04 06:21:22;;;;;;;8.68;6.57;;;;;;;;;;5041888;28;20091;-86
2023/03/04 06:23:48;;;;;;;6.20;5.82;;;;;;;;;;5031450;28;20053;-85
2023/03/04 06:26:16;;;;;;;4.75;4.13;;;;;;;;;;5031211;28;20099;-85
2023/03/04 06:28:43;;;;;;;6.38;5.97;;;;;;;;;;5031521;28;20054;-86
2023/03/04 06:31:09;;;;;;;7.55;7.05;;;;;;;;;;5030934;28;20061;-86
2023/03/04 06:33:36;;;;;;;4.05;3.65;;;;;;;;;;5031525;28;20057;-86
2023/03/04 06:36:02;;;;;;;3.88;3.65;;;;;;;;;;5031238;28;20079;-86
2023/03/04 06:38:29;;;;;;;5.50;5.00;;;;;;;;;;5032545;28;20053;-86
2023/03/04 06:40:55;;;;;;;4.47;4.25;;;;;;;;;;5031192;28;20494;-86
2023/03/04 06:43:23;;;;;;;6.78;5.15;;;;;;;;;;5031150;28;20053;-86
2023/03/04 06:45:50;;;;;;;5.63;5.15;;;;;;;;;;5030390;28;20494;-86
2023/03/04 06:48:16;;;;;;;5.13;4.75;;;;;;;;;;5031381;28;20061;-86
2023/03/04 06:50:43;;;;;;;5.85;5.45;;;;;;;;;;5031565;28;20041;-86
2023/03/04 06:53:09;;;;;;;5.45;5.07;;;;;;;;;;5050841;28;20049;-87
2023/03/04 06:55:36;;;;;;;5.85;4.85;;;;;;;;;;5040950;28;20558;-86
2023/03/04 06:58:02;;;;;;;3.88;3.58;;;;;;;;;;5031341;28;20103;-87
2023/03/04 07:00:30;;;;;;;5.13;4.32;;;;;;;;;;5034568;28;20053;-87
2023/03/04 07:02:58;;;;;;;7.53;6.82;;;;;;;;;;5054260;28;20053;-86
2023/03/04 07:05:24;;;;;;;4.60;4.18;;;;;;;;;;5051385;28;20460;-87
2023/03/04 07:07:51;;;;;;;4.07;3.85;;;;;;;;;;5053915;28;20107;-86
2023/03/04 07:10:17;;;;;;;4.72;4.32;;;;;;;;;;5053940;28;20106;-86
2023/03/04 07:12:44;;;;;;;5.15;4.72;;;;;;;;;;5035364;28;20556;-86
2023/03/04 07:15:10;;;;;;;4.40;3.90;;;;;;;;;;5033602;28;20049;-86
2023/03/04 07:17:38;;;;;;;4.60;4.20;;;;;;;;;;5034328;28;20050;-87
2023/03/04 07:20:05;;;;;;;6.43;5.07;;;;;;;;;;5034454;28;20119;-86
2023/03/04 07:22:31;;;;;;;5.75;4.75;;;;;;;;;;5049155;28;20083;-87
2023/03/04 07:24:58;;;;;;;8.00;5.50;;;;;;;;;;5053917;28;20744;-86
2023/03/04 07:27:24;;;;;;;5.32;4.93;;;;;;;;;;5053781;28;20110;-87
2023/03/04 07:29:51;;;;;;;4.82;4.32;;;;;;;;;;5035591;28;20053;-87
2023/03/04 07:32:17;;;;;;;8.23;4.75;;;;;;;;;;5033462;28;20423;-87
2023/03/04 07:34:45;;;;;;;7.25;6.65;;;;;;;;;;5034672;28;20049;-86
2023/03/04 07:37:12;;;;;;;6.43;4.53;;;;;;;;;;5035286;28;20049;-87
2023/03/04 07:39:38;;;;;;;11.43;10.73;;;;;;;;;;5031064;28;20094;-86
2023/03/04 07:42:05;;;;;;;6.65;6.15;;;;;;;;;;5031518;28;20112;-87
2023/03/04 07:44:31;;;;;;;7.00;6.38;;;;;;;;;;5031291;28;20049;-88
2023/03/04 07:46:58;;;;;;;10.43;8.07;;;;;;;;;;5047496;28;20052;-86
2023/03/04 07:49:24;;;;;;;6.70;6.20;;;;;;;;;;5050964;28;20049;-86
2023/03/04 07:51:52;;;;;;;4.97;4.65;;;;;;;;;;5051761;28;20495;-86
2023/03/04 07:54:19;;;;;;;5.90;5.38;;;;;;;;;;5051288;28;20048;-85
2023/03/04 07:56:46;;;;;;;7.18;6.57;;;;;;;;;;5051557;28;20133;-88
2023/03/04 07:59:12;;;;;;;4.35;3.88;;;;;;;;;;5031612;28;20478;-87
2023/03/04 08:01:39;;;;;;;7.90;7.25;;;;;;;;;;5032362;28;20053;-87
2023/03/04 08:04:06;;;;;;;6.00;5.72;;;;;;;;;;5033440;28;20100;-87
2023/03/04 08:06:33;;;;;;;5.03;4.63;;;;;;;;;;5031282;28;20131;-86
2023/03/04 08:09:02;;;;;;;4.75;4.30;;;;;;;;;;5037131;28;20487;-87
2023/03/04 08:11:29;;;;;;;5.05;4.68;;;;;;;;;;5039640;28;20058;-87
2023/03/04 08:13:57;;;;;;;4.78;4.15;;;;;;;;;;5036944;28;20053;-85
2023/03/04 08:16:24;;;;;;;5.25;4.82;;;;;;;;;;5039963;28;20547;-85
2023/03/04 08:18:52;;;;;;;6.97;6.43;;;;;;;;;;5039497;28;20519;-85
2023/03/04 08:21:19;;;;;;;6.43;5.93;;;;;;;;;;5045991;28;20048;-87
2023/03/04 08:23:46;;;;;;;6.93;6.20;;;;;;;;;;5041313;28;20458;-86
2023/03/04 08:26:16;;;;;;;5.78;5.32;;;;;;;;;;5045820;28;20098;-87
2023/03/04 08:28:44;;;;;;;9.00;5.18;;;;;;;;;;5035583;28;20049;-88
2023/03/04 08:31:11;;;;;;;8.25;7.55;;;;;;;;;;5042774;28;20057;-88
2023/03/04 08:33:38;;;;;;;6.00;5.68;;;;;;;;;;5041578;28;20099;-88
2023/03/04 08:36:05;;;;;;;7.47;5.53;;;;;;;;;;5039336;28;20052;-87
2023/03/04 08:38:31;;;;;;;7.72;7.13;;;;;;;;;;5037247;28;20049;-87
2023/03/04 08:40:58;;;;;;;8.13;6.85;;;;;;;;;;5031786;28;20045;-87
2023/03/04 08:43:26;;;;;;;8.55;6.97;;;;;;;;;;5032341;28;20752;-87
2023/03/04 08:45:54;;;;;;;6.57;5.80;;;;;;;;;;5034807;28;20048;-88
2023/03/04 08:48:20;;;;;;;7.65;5.60;;;;;;;;;;5049002;28;20052;-87
2023/03/04 08:50:47;;;;;;;6.00;5.43;;;;;;;;;;5052029;28;20107;-88
2023/03/04 08:53:14;;;;;;;9.77;7.68;;;;;;;;;;5040306;28;20041;-88
2023/03/04 08:55:41;;;;;;;5.13;4.78;;;;;;;;;;5051821;28;20110;-87
2023/03/04 08:58:07;;;;;;;6.50;6.00;;;;;;;;;;5051488;28;20098;-88
2023/03/04 09:00:36;;;;;;;7.10;6.60;;;;;;;;;;5047875;28;20116;-88
2023/03/04 09:03:03;;;;;;;8.27;7.55;;;;;;;;;;5045274;28;20052;-87
2023/03/04 09:05:30;;;;;;;8.75;8.15;;;;;;;;;;5049484;28;20045;-88
2023/03/04 09:07:57;;;;;;;5.80;5.30;;;;;;;;;;5031616;28;20483;-88
2023/03/04 09:10:24;;;;;;;7.68;6.93;;;;;;;;;;5031920;28;20053;-88
2023/03/04 09:12:50;;;;;;;7.95;7.47;;;;;;;;;;5035574;28;20042;-87
2023/03/04 09:15:17;;;;;;;5.75;5.25;;;;;;;;;;5029345;28;20049;-88
2023/03/04 09:17:45;;;;;;;7.50;6.90;;;;;;;;;;5037062;28;20135;-88
2023/03/04 09:20:12;;;;;;;6.22;5.72;;;;;;;;;;5032537;28;20487;-88
2023/03/04 09:22:39;;;;;;;7.40;6.55;;;;;;;;;;5038293;28;20533;-89
2023/03/04 09:25:06;;;;;;;4.35;3.95;;;;;;;;;;5031852;28;20498;-88
2023/03/04 09:27:33;;;;;;;8.88;6.38;;;;;;;;;;5032438;28;20045;-89
2023/03/04 09:29:59;;;;;;;7.85;5.10;;;;;;;;;;5031739;28;20107;-88
2023/03/04 09:32:26;;;;;;;7.82;6.95;;;;;;;;;;5038943;28;20098;-88
2023/03/04 09:34:54;;;;;;;6.20;5.38;;;;;;;;;;5046009;28;20036;-89
2023/03/04 09:37:20;;;;;;;8.00;7.47;;;;;;;;;;5034766;28;20040;-88
2023/03/04 09:39:48;;;;;;;7.72;7.03;;;;;;;;;;5035510;28;20053;-88
2023/03/04 09:42:23;;;;;;;8.15;7.57;;;;;;;;;;5048901;28;20049;-89
2023/03/04 09:44:50;;;;;;;7.70;7.05;;;;;;;;;;5052145;28;20557;-89
2023/03/04 09:47:17;;;;;;;10.13;6.82;;;;;;;;;;5046764;28;20323;-89
2023/03/04 09:49:44;;;;;;;6.40;5.85;;;;;;;;;;5042635;28;20103;-89
2023/03/04 09:52:19;;;;;;;7.30;6.70;;;;;;;;;;5045721;28;20517;-89
2023/03/04 09:54:58;;;;;;;8.15;5.90;;;;;;;;;;5031527;28;20072;-89
2023/03/04 09:57:28;;;;;;;6.32;5.93;;;;;;;;;;5031064;28;20049;-89
2023/03/04 10:00:00;;;;;;;7.95;7.35;;;;;;;;;;5031566;28;20103;-89
2023/03/04 10:02:32;;;;;;;6.60;6.07;;;;;;;;;;5031259;28;20128;-88
2023/03/04 10:05:00;;;;;;;7.10;6.50;;;;;;;;;;5033746;28;20094;-90
2023/03/04 10:07:31;;;;;;;4.60;4.13;;;;;;;;;;5030324;28;20399;-89
2023/03/04 10:10:00;;;;;;;6.05;5.57;;;;;;;;;;5040195;28;20091;-88
2023/03/04 10:12:29;;;;;;;7.50;6.90;;;;;;;;;;5039849;28;20047;-88
2023/03/04 10:14:59;;;;;;;8.75;7.20;;;;;;;;;;5047387;28;20048;-89
2023/03/04 10:17:29;;;;;;;5.90;5.50;;;;;;;;;;5040931;28;20038;-89
2023/03/04 10:19:58;;;;;;;6.22;5.70;;;;;;;;;;5040026;28;20053;-89
2023/03/04 10:22:29;;;;;;;8.85;7.38;;;;;;;;;;5044720;28;20663;-87
2023/03/04 10:24:57;;;;;;;8.02;7.43;;;;;;;;;;5031952;28;20041;-89
2023/03/04 10:27:24;;;;;;;7.47;6.93;;;;;;;;;;5043567;28;20042;-89
2023/03/04 10:29:51;;;;;;;6.63;6.00;;;;;;;;;;5049921;28;20049;-88
2023/03/04 10:32:18;;;;;;;7.55;6.95;;;;;;;;;;5048676;28;20053;-88
2023/03/04 10:34:45;;;;;;;8.32;6.20;;;;;;;;;;5033959;28;20053;-88
2023/03/04 10:37:11;;;;;;;7.40;6.70;;;;;;;;;;5036020;28;20053;-88
2023/03/04 10:39:38;;;;;;;7.03;6.32;;;;;;;;;;5047391;28;20053;-87
2023/03/04 10:42:07;;;;;;;7.53;7.03;;;;;;;;;;5033987;28;20050;-88
2023/03/04 10:44:34;;;;;;;4.68;4.38;;;;;;;;;;5034659;28;20099;-88
2023/03/04 10:47:01;;;;;;;6.35;5.88;;;;;;;;;;5035104;28;20091;-87
2023/03/04 10:49:29;;;;;;;7.05;6.53;;;;;;;;;;5035016;28;20038;-88
2023/03/04 10:52:01;;;;;;;8.07;6.57;;;;;;;;;;5034506;28;20119;-88
2023/03/04 10:54:29;;;;;;;9.98;7.70;;;;;;;;;;5051725;28;20223;-88
2023/03/04 10:56:58;;;;;;;5.07;4.68;;;;;;;;;;5049056;28;20049;-88
2023/03/04 10:59:39;;;;;;;5.43;5.05;;;;;;;;;;5053880;28;20052;-88
2023/03/04 11:02:23;;;;;;;5.45;5.05;;;;;;;;;;5054160;28;20556;-88
2023/03/04 11:04:52;;;;;;;7.65;7.03;;;;;;;;;;5054182;28;20095;-88
2023/03/04 11:07:18;;;;;;;11.27;6.05;;;;;;;;;;5052733;28;20052;-87
2023/03/04 11:09:45;;;;;;;8.05;5.35;;;;;;;;;;5034287;28;20466;-88
2023/03/04 11:12:12;;;;;;;5.75;4.95;;;;;;;;;;5034056;28;20103;-88
2023/03/04 11:14:44;;;;;;;4.63;4.20;;;;;;;;;;5035584;28;20049;-88
2023/03/04 11:17:18;;;;;;;7.25;6.75;;;;;;;;;;5035613;28;20049;-88
2023/03/04 11:19:47;;;;;;;6.07;5.57;;;;;;;;;;5033699;28;20564;-88
2023/03/04 11:22:14;;;;;;;8.02;6.35;;;;;;;;;;5033709;28;20578;-88
2023/03/04 11:24:43;;;;;;;8.07;7.47;;;;;;;;;;5053001;28;20052;-88
2023/03/04 11:27:15;;;;;;;7.50;7.00;;;;;;;;;;5053614;28;20098;-89
2023/03/04 11:29:47;;;;;;;5.45;5.05;;;;;;;;;;5044790;28;20384;-88
2023/03/04 11:32:18;;;;;;;6.15;5.63;;;;;;;;;;5049935;28;20056;-88
2023/03/04 11:34:50;;;;;;;6.15;5.75;;;;;;;;;;5049194;28;20053;-89
2023/03/04 11:37:19;;;;;;;6.47;5.97;;;;;;;;;;5053619;28;20049;-89
2023/03/04 11:39:48;;;;;;;5.30;4.97;;;;;;;;;;5053667;28;20152;-89
2023/03/04 11:42:21;;;;;;;5.18;4.72;;;;;;;;;;5042762;28;20053;-88
2023/03/04 11:44:48;;;;;;;9.52;8.68;;;;;;;;;;5048969;28;20110;-88
2023/03/04 11:47:30;;;;;;;9.23;8.43;;;;;;;;;;5050096;28;20041;-88
2023/03/04 11:50:15;;;;;;;7.43;6.85;;;;;;;;;;5019652;28;20111;-88
2023/03/04 11:53:08;;;;;;;7.80;7.25;;;;;;;;;;5034525;28;20075;-88
2023/03/04 11:55:39;;;;;;;7.40;6.90;;;;;;;;;;4971620;28;20497;-88
2023/03/04 11:58:15;;;;;;;6.68;6.10;;;;;;;;;;4967467;28;20106;-89
2023/03/04 12:00:45;;;;;;;7.20;6.47;;;;;;;;;;4957984;28;20058;-88
2023/03/04 12:03:17;;;;;;;5.65;5.25;;;;;;;;;;4971903;28;20057;-88
2023/03/04 12:05:50;;;;;;;8.85;5.88;;;;;;;;;;4967581;28;20054;-89
2023/03/04 12:08:31;;;;;;;3.83;3.63;;;;;;;;;;4971986;28;20042;-88
2023/03/04 12:11:03;;;;;;;5.82;5.53;;;;;;;;;;4967917;28;20090;-88
2023/03/04 12:13:44;;;;;;;5.25;4.85;;;;;;;;;;4965476;28;20790;-88
2023/03/04 12:16:18;;;;;;;8.73;7.93;;;;;;;;;;4948988;29;20055;-87
2023/03/04 12:18:54;;;;;;;5.82;5.25;;;;;;;;;;4952845;28;20118;-87
2023/03/04 12:21:27;;;;;;;5.88;5.38;;;;;;;;;;4955775;28;20433;-88
2023/03/04 12:24:04;;;;;;;7.95;7.25;;;;;;;;;;4962587;28;20086;-87
2023/03/04 12:26:33;;;;;;;4.85;4.45;;;;;;;;;;4951857;29;20059;-87
2023/03/04 12:29:03;;;;;;;5.75;5.28;;;;;;;;;;4952218;28;20059;-87
2023/03/04 12:31:35;;;;;;;7.15;6.47;;;;;;;;;;4996093;28;20580;-88
2023/03/04 12:34:23;;;;;;;7.80;7.20;;;;;;;;;;5043067;28;20107;-87
2023/03/04 12:36:54;;;;;;;6.72;6.25;;;;;;;;;;5019193;28;20045;-88
2023/03/04 12:39:27;;;;;;;9.00;8.18;;;;;;;;;;5035691;28;20099;-88
2023/03/04 12:41:58;;;;;;;7.80;7.20;;;;;;;;;;5031939;28;20130;-88
2023/03/04 12:44:24;;;;;;;7.18;6.60;;;;;;;;;;5033067;28;20099;-89
2023/03/04 12:47:11;;;;;;;8.13;7.53;;;;;;;;;;5032745;28;20050;-88
2023/03/04 12:49:55;;;;;;;9.95;6.65;;;;;;;;;;5047258;28;20394;-88
2023/03/04 12:52:26;;;;;;;7.40;4.70;;;;;;;;;;5052770;28;20425;-88
2023/03/04 12:54:56;;;;;;;7.00;6.32;;;;;;;;;;5037037;28;20103;-88
2023/03/04 12:57:24;;;;;;;4.82;4.57;;;;;;;;;;5031619;28;20080;-87
2023/03/04 12:59:54;;;;;;;7.50;7.00;;;;;;;;;;5032519;28;20544;-88
2023/03/04 13:02:29;;;;;;;7.82;7.30;;;;;;;;;;5037839;28;20075;-88
2023/03/04 13:05:00;;;;;;;7.95;7.45;;;;;;;;;;5039940;28;20061;-88
2023/03/04 13:07:33;;;;;;;6.35;5.95;;;;;;;;;;5035262;28;20119;-88
2023/03/04 13:10:05;;;;;;;7.93;7.50;;;;;;;;;;5041857;28;20095;-88
2023/03/04 13:12:45;;;;;;;6.13;5.65;;;;;;;;;;5039181;28;20110;-88
2023/03/04 13:15:18;;;;;;;7.10;5.68;;;;;;;;;;5037036;28;20079;-88
2023/03/04 13:17:48;;;;;;;9.00;8.50;;;;;;;;;;5042666;28;20187;-88
2023/03/04 13:20:23;;;;;;;6.13;5.72;;;;;;;;;;5041126;28;20052;-88
2023/03/04 13:22:54;;;;;;;6.57;6.18;;;;;;;;;;5031330;28;20111;-88
2023/03/04 13:25:45;;;;;;;7.78;7.05;;;;;;;;;;5041462;28;20049;-88
2023/03/04 13:28:21;;;;;;;21.00;17.88;;;;;;;;;;5036146;28;20038;-87
2023/03/04 13:31:15;;;;;;;7.90;7.15;;;;;;;;;;5038450;28;20119;-88
2023/03/04 13:33:59;;;;;;;7.32;6.72;;;;;;;;;;5041891;28;20046;-88
2023/03/04 13:36:32;;;;;;;5.97;5.57;;;;;;;;;;5030651;28;20053;-89
2023/03/04 13:39:00;;;;;;;8.68;8.05;;;;;;;;;;5031300;28;20103;-88
2023/03/04 13:41:30;;;;;;;8.30;7.70;;;;;;;;;;5030902;28;20107;-88
2023/03/04 13:43:57;;;;;;;6.22;5.63;;;;;;;;;;5033988;28;20124;-89
2023/03/04 13:46:39;;;;;;;7.47;6.88;;;;;;;;;;5038293;28;20052;-88
2023/03/04 13:49:07;;;;;;;6.57;6.15;;;;;;;;;;5036565;28;20067;-88
2023/03/04 13:51:39;;;;;;;6.60;6.20;;;;;;;;;;5034533;28;20128;-89
2023/03/04 13:54:13;;;;;;;7.25;6.80;;;;;;;;;;5047416;28;20053;-88
2023/03/04 13:56:40;;;;;;;6.93;6.43;;;;;;;;;;5030382;28;20103;-88
2023/03/04 13:59:30;;;;;;;6.72;6.32;;;;;;;;;;5035653;28;20553;-89
2023/03/04 14:01:59;;;;;;;5.15;4.85;;;;;;;;;;5033105;28;20115;-88
2023/03/04 14:04:30;;;;;;;6.55;6.05;;;;;;;;;;5041481;28;20045;-89
2023/03/04 14:06:59;;;;;;;11.10;7.88;;;;;;;;;;5035540;28;20053;-87
2023/03/04 14:09:27;;;;;;;5.53;5.00;;;;;;;;;;5047210;28;20045;-87
2023/03/04 14:11:55;;;;;;;8.25;5.82;;;;;;;;;;5045793;28;20049;-88
2023/03/04 14:14:24;;;;;;;7.55;6.85;;;;;;;;;;5041299;28;20054;-86
2023/03/04 14:16:52;;;;;;;6.07;5.55;;;;;;;;;;5045566;28;20045;-88
2023/03/04 14:19:23;;;;;;;7.22;6.60;;;;;;;;;;5043463;28;20669;-87
2023/03/04 14:21:49;;;;;;;5.90;5.47;;;;;;;;;;5048129;28;20053;-87
2023/03/04 14:24:18;;;;;;;4.57;4.30;;;;;;;;;;5044037;28;20052;-88
2023/03/04 14:26:45;;;;;;;5.88;5.13;;;;;;;;;;5046209;28;20564;-88
2023/03/04 14:29:21;;;;;;;6.30;5.88;;;;;;;;;;5048220;28;20092;-88
2023/03/04 14:31:48;;;;;;;6.65;6.05;;;;;;;;;;5042729;28;20119;-88
2023/03/04 14:34:17;;;;;;;8.60;8.00;;;;;;;;;;5044340;28;20556;-88
2023/03/04 14:36:44;;;;;;;9.07;8.45;;;;;;;;;;5046412;28;20057;-88
2023/03/04 14:39:15;;;;;;;9.82;9.10;;;;;;;;;;5044574;28;20106;-88
2023/03/04 14:41:43;;;;;;;7.70;7.20;;;;;;;;;;5038724;28;20100;-88
2023/03/04 14:44:13;;;;;;;8.18;7.43;;;;;;;;;;5045014;28;20041;-88
2023/03/04 14:46:41;;;;;;;6.85;6.40;;;;;;;;;;5043950;28;20095;-89
2023/03/04 14:49:11;;;;;;;5.00;4.70;;;;;;;;;;5044900;28;20474;-88
2023/03/04 14:51:47;;;;;;;9.40;8.75;;;;;;;;;;5050513;28;20051;-88